createdAt,value
2018-12-27T00:00:59.241Z,96.90
2018-12-27T00:03:27.372Z,96.90
2018-12-27T00:05:55.637Z,96.90
2018-12-27T00:08:23.784Z,96.90
2018-12-27T00:10:52.204Z,97.10
2018-12-27T00:13:20.291Z,97.40
2018-12-27T00:15:49.541Z,97.90
2018-12-27T00:18:17.708Z,98.10
2018-12-27T00:20:45.901Z,98.40
2018-12-27T00:23:14.042Z,98.60
2018-12-27T00:25:42.652Z,98.50
2018-12-27T00:28:10.901Z,98.40
2018-12-27T00:30:39.472Z,98.00
2018-12-27T00:33:07.622Z,97.70
2018-12-27T00:35:35.991Z,97.30
2018-12-27T00:38:04.115Z,97.00
2018-12-27T00:40:32.312Z,96.70
2018-12-27T00:43:00.467Z,96.40
2018-12-27T00:45:29.804Z,96.10
2018-12-27T00:47:57.984Z,95.90
2018-12-27T00:50:27.245Z,95.80
2018-12-27T00:52:55.544Z,95.80
2018-12-27T00:55:23.789Z,95.90
2018-12-27T00:57:52.028Z,95.90
2018-12-27T01:00:20.208Z,95.90
2018-12-27T01:02:48.304Z,96.20
2018-12-27T01:05:16.551Z,96.50
2018-12-27T01:07:44.768Z,96.80
2018-12-27T01:10:13.059Z,97.20
2018-12-27T01:12:41.247Z,97.70
2018-12-27T01:15:09.347Z,98.20
2018-12-27T01:17:37.568Z,98.60
2018-12-27T01:20:05.660Z,98.80
2018-12-27T01:22:33.847Z,98.90
2018-12-27T01:25:01.943Z,98.90
2018-12-27T01:27:30.587Z,98.80
2018-12-27T01:29:58.745Z,98.80
2018-12-27T01:32:27.013Z,98.60
2018-12-27T01:34:55.229Z,98.40
2018-12-27T01:37:23.409Z,98.40
2018-12-27T01:39:52.544Z,98.20
2018-12-27T01:42:20.765Z,98.10
2018-12-27T01:44:48.867Z,98.00
2018-12-27T01:47:17.365Z,98.00
2018-12-27T01:49:45.564Z,98.00
2018-12-27T01:52:13.704Z,98.00
2018-12-27T01:54:41.880Z,97.90
2018-12-27T01:57:10.089Z,97.90
2018-12-27T01:59:38.207Z,97.80
2018-12-27T02:02:06.440Z,97.70
2018-12-27T02:04:34.533Z,97.70
2018-12-27T02:07:02.726Z,97.60
2018-12-27T02:09:30.965Z,97.60
2018-12-27T02:11:59.052Z,97.70
2018-12-27T02:14:27.280Z,97.80
2018-12-27T02:16:55.388Z,97.80
2018-12-27T02:19:23.601Z,97.80
2018-12-27T02:21:51.730Z,97.70
2018-12-27T02:24:23.123Z,97.70
2018-12-27T02:26:51.396Z,97.70
2018-12-27T02:29:19.680Z,97.80
2018-12-27T02:31:47.906Z,97.90
2018-12-27T02:34:16.113Z,97.90
2018-12-27T02:36:44.307Z,98.10
2018-12-27T02:39:12.446Z,98.20
2018-12-27T02:41:40.630Z,98.30
2018-12-27T02:44:08.741Z,98.30
2018-12-27T02:46:37.009Z,98.40
2018-12-27T02:49:05.115Z,98.50
2018-12-27T02:51:33.301Z,98.60
2018-12-27T02:54:01.538Z,98.60
2018-12-27T02:56:29.644Z,98.60
2018-12-27T02:58:59.173Z,98.70
2018-12-27T03:01:27.312Z,98.70
2018-12-27T03:03:55.538Z,98.70
2018-12-27T03:06:23.978Z,98.60
2018-12-27T03:08:52.109Z,98.40
2018-12-27T03:11:20.721Z,98.10
2018-12-27T03:13:49.213Z,97.70
2018-12-27T03:16:17.346Z,97.50
2018-12-27T03:18:45.785Z,97.30
2018-12-27T03:21:14.745Z,97.20
2018-12-27T03:23:42.938Z,97.20
2018-12-27T03:26:11.065Z,97.40
2018-12-27T03:28:39.552Z,97.40
2018-12-27T03:31:08.134Z,97.40
2018-12-27T03:33:36.280Z,97.40
2018-12-27T03:36:04.841Z,97.30
2018-12-27T03:38:33.646Z,97.20
2018-12-27T03:41:01.798Z,97.30
2018-12-27T03:43:29.953Z,97.30
2018-12-27T03:45:58.077Z,97.40
2018-12-27T03:48:26.325Z,97.70
2018-12-27T03:50:54.539Z,98.00
2018-12-27T03:53:22.674Z,98.30
2018-12-27T03:55:50.843Z,98.40
2018-12-27T03:58:18.995Z,98.80
2018-12-27T04:00:47.140Z,99.00
2018-12-27T04:03:17.185Z,98.90
2018-12-27T04:05:45.332Z,98.90
2018-12-27T04:08:13.526Z,98.80
2018-12-27T04:10:41.592Z,98.70
2018-12-27T04:13:09.766Z,98.40
2018-12-27T04:15:37.910Z,98.30
2018-12-27T04:18:06.109Z,98.40
2018-12-27T04:20:34.286Z,98.40
2018-12-27T04:23:02.500Z,98.40
2018-12-27T04:25:31.676Z,98.40
2018-12-27T04:27:59.811Z,98.60
2018-12-27T04:30:27.981Z,98.70
2018-12-27T04:32:56.672Z,98.90
2018-12-27T04:35:25.081Z,99.00
2018-12-27T04:37:53.304Z,99.00
2018-12-27T04:40:21.385Z,99.00
2018-12-27T04:42:49.739Z,99.00
2018-12-27T04:45:17.943Z,98.90
2018-12-27T04:47:46.098Z,98.80
2018-12-27T04:50:14.261Z,98.90
2018-12-27T04:52:42.411Z,98.90
2018-12-27T04:55:10.584Z,99.00
2018-12-27T04:57:38.759Z,99.00
2018-12-27T05:00:07.574Z,99.00
2018-12-27T05:02:35.751Z,98.90
2018-12-27T05:05:04.030Z,98.80
2018-12-27T05:07:33.543Z,98.70
2018-12-27T05:10:01.810Z,98.50
2018-12-27T05:12:30.057Z,98.30
2018-12-27T05:14:58.319Z,98.00
2018-12-27T05:17:26.482Z,97.70
2018-12-27T05:19:54.657Z,97.50
2018-12-27T05:22:22.949Z,97.30
2018-12-27T05:24:51.127Z,97.10
2018-12-27T05:27:19.261Z,97.00
2018-12-27T05:29:47.397Z,97.00
2018-12-27T05:32:15.567Z,97.10
2018-12-27T05:34:45.548Z,97.10
2018-12-27T05:37:13.577Z,97.20
2018-12-27T05:39:41.738Z,97.20
2018-12-27T05:42:09.809Z,97.20
2018-12-27T05:44:37.992Z,97.20
2018-12-27T05:47:06.162Z,97.10
2018-12-27T05:49:34.307Z,97.10
2018-12-27T05:52:02.464Z,97.20
2018-12-27T05:54:34.754Z,97.20
2018-12-27T05:57:03.036Z,97.40
2018-12-27T05:59:31.237Z,97.70
2018-12-27T06:01:59.402Z,98.20
2018-12-27T06:04:33.746Z,98.60
2018-12-27T06:06:57.448Z,99.00
2018-12-27T06:09:25.514Z,99.30
2018-12-27T06:11:53.645Z,99.60
2018-12-27T06:14:21.765Z,99.70
2018-12-27T06:16:50.058Z,99.60
2018-12-27T06:19:18.246Z,99.50
2018-12-27T06:21:46.426Z,99.40
2018-12-27T06:24:14.590Z,99.40
2018-12-27T06:26:42.626Z,99.50
2018-12-27T06:29:10.812Z,99.50
2018-12-27T06:31:38.834Z,99.60
2018-12-27T06:34:07.090Z,99.70
2018-12-27T06:36:35.314Z,99.80
2018-12-27T06:39:05.455Z,99.70
2018-12-27T06:41:33.650Z,99.70
2018-12-27T06:44:01.880Z,99.70
2018-12-27T06:46:30.057Z,99.60
2018-12-27T06:48:58.217Z,99.50
2018-12-27T06:51:26.442Z,99.40
2018-12-27T06:53:54.941Z,99.30
2018-12-27T06:56:23.111Z,99.10
2018-12-27T06:58:51.573Z,98.90
2018-12-27T07:01:19.776Z,98.90
2018-12-27T07:03:47.940Z,98.80
2018-12-27T07:06:16.117Z,98.80
2018-12-27T07:08:44.285Z,98.80
2018-12-27T07:11:12.810Z,98.80
2018-12-27T07:13:41.142Z,99.00
2018-12-27T07:16:09.266Z,99.00
2018-12-27T07:18:37.443Z,98.90
2018-12-27T07:21:05.715Z,98.90
2018-12-27T07:23:33.977Z,98.90
2018-12-27T07:26:03.248Z,98.70
2018-12-27T07:28:31.464Z,98.50
2018-12-27T07:30:59.525Z,98.30
2018-12-27T07:33:27.651Z,98.20
2018-12-27T07:35:56.125Z,97.90
2018-12-27T07:38:24.198Z,97.60
2018-12-27T07:40:52.687Z,96.50
2018-12-27T07:43:20.690Z,79.30
2018-12-27T07:45:48.805Z,67.50
2018-12-27T07:48:16.912Z,61.30
2018-12-27T07:50:45.017Z,59.50
2018-12-27T07:53:13.094Z,55.20
2018-12-27T07:55:41.369Z,53.60
2018-12-27T07:58:09.428Z,53.30
2018-12-27T08:00:37.641Z,52.80
2018-12-27T08:03:05.745Z,51.90
2018-12-27T08:05:33.961Z,51.70
2018-12-27T08:08:02.129Z,51.10
2018-12-27T08:10:30.293Z,50.70
2018-12-27T08:12:59.515Z,50.00
2018-12-27T08:15:27.781Z,49.40
2018-12-27T08:17:56.008Z,49.00
2018-12-27T08:20:24.289Z,48.60
2018-12-27T08:22:54.001Z,48.20
2018-12-27T08:25:23.173Z,48.00
2018-12-27T08:27:53.553Z,47.80
2018-12-27T08:30:22.056Z,47.70
2018-12-27T08:32:50.311Z,47.80
2018-12-27T08:35:18.417Z,48.30
2018-12-27T08:37:46.661Z,48.30
2018-12-27T08:40:15.265Z,49.40
2018-12-27T08:42:43.564Z,49.70
2018-12-27T08:45:11.716Z,50.00
2018-12-27T08:47:40.264Z,50.10
2018-12-27T08:50:08.409Z,56.90
2018-12-27T08:52:36.702Z,68.80
2018-12-27T08:55:05.481Z,74.60
2018-12-27T08:57:34.048Z,74.50
2018-12-27T09:00:02.165Z,75.20
2018-12-27T09:02:30.372Z,76.30
2018-12-27T09:05:01.375Z,78.00
2018-12-27T09:07:30.083Z,78.20
2018-12-27T09:09:58.773Z,78.60
2018-12-27T09:12:28.249Z,78.70
2018-12-27T09:14:56.495Z,78.80
2018-12-27T09:17:24.697Z,78.30
2018-12-27T09:19:52.861Z,77.90
2018-12-27T09:22:21.087Z,78.20
2018-12-27T09:24:49.317Z,79.10
2018-12-27T09:27:18.412Z,79.30
2018-12-27T09:29:46.581Z,79.90
2018-12-27T09:32:14.693Z,79.80
2018-12-27T09:34:44.091Z,79.80
2018-12-27T09:37:12.173Z,79.30
2018-12-27T09:39:40.375Z,79.40
2018-12-27T09:42:08.496Z,79.50
2018-12-27T09:44:36.650Z,80.00
2018-12-27T09:47:04.840Z,80.40
2018-12-27T09:49:32.989Z,80.80
2018-12-27T09:52:02.166Z,80.80
2018-12-27T09:54:30.584Z,81.40
2018-12-27T09:56:58.842Z,81.50
2018-12-27T09:59:27.039Z,81.60
2018-12-27T10:01:55.469Z,81.70
2018-12-27T10:04:24.078Z,81.50
2018-12-27T10:06:52.362Z,81.40
2018-12-27T10:09:20.600Z,80.90
2018-12-27T10:11:49.347Z,80.80
2018-12-27T10:14:17.473Z,80.90
2018-12-27T10:16:45.785Z,80.80
2018-12-27T10:19:14.139Z,80.90
2018-12-27T10:21:42.653Z,81.00
2018-12-27T10:24:10.830Z,80.30
2018-12-27T10:26:38.953Z,80.30
2018-12-27T10:29:07.246Z,80.40
2018-12-27T10:31:35.528Z,80.90
2018-12-27T10:34:03.660Z,81.60
2018-12-27T10:36:31.989Z,81.90
2018-12-27T10:39:06.178Z,82.20
2018-12-27T10:41:34.454Z,82.00
2018-12-27T10:44:02.729Z,82.00
2018-12-27T10:46:30.878Z,81.80
2018-12-27T10:48:59.220Z,81.50
2018-12-27T10:51:27.832Z,81.40
2018-12-27T10:53:56.119Z,81.10
2018-12-27T10:56:24.715Z,81.00
2018-12-27T10:58:53.141Z,81.10
2018-12-27T11:01:21.401Z,80.90
2018-12-27T11:03:49.625Z,80.80
2018-12-27T11:06:18.072Z,80.40
2018-12-27T11:08:46.338Z,79.90
2018-12-27T11:11:14.507Z,79.30
2018-12-27T11:13:42.791Z,78.80
2018-12-27T11:16:11.057Z,78.20
2018-12-27T11:18:39.172Z,77.70
2018-12-27T11:21:07.339Z,77.20
2018-12-27T11:23:35.705Z,77.20
2018-12-27T11:26:03.992Z,77.30
2018-12-27T11:28:32.172Z,77.20
2018-12-27T11:31:00.341Z,77.40
2018-12-27T11:33:29.117Z,77.40
2018-12-27T11:35:57.295Z,77.70
2018-12-27T11:38:25.560Z,77.70
2018-12-27T11:40:53.841Z,77.50
2018-12-27T11:43:22.702Z,77.20
2018-12-27T11:45:51.454Z,77.20
2018-12-27T11:48:19.558Z,76.50
2018-12-27T11:50:47.806Z,75.90
2018-12-27T11:53:16.226Z,75.40
2018-12-27T11:55:45.396Z,74.90
2018-12-27T11:58:13.481Z,74.00
2018-12-27T12:00:41.749Z,73.00
2018-12-27T12:03:10.199Z,72.70
2018-12-27T12:05:38.459Z,72.20
2018-12-27T12:08:06.747Z,72.10
2018-12-27T12:10:34.905Z,72.30
2018-12-27T12:13:03.342Z,72.20
2018-12-27T12:15:33.484Z,72.50
2018-12-27T12:18:01.792Z,68.80
2018-12-27T12:20:30.105Z,68.90
2018-12-27T12:22:58.341Z,69.20
2018-12-27T12:25:26.692Z,69.20
2018-12-27T12:27:54.886Z,69.30
2018-12-27T12:30:23.071Z,66.90
2018-12-27T12:32:51.955Z,66.50
2018-12-27T12:35:20.044Z,65.40
2018-12-27T12:37:49.596Z,65.10
2018-12-27T12:40:17.687Z,64.90
2018-12-27T12:42:46.265Z,64.30
2018-12-27T12:45:14.440Z,64.00
2018-12-27T12:47:43.457Z,63.90
2018-12-27T12:50:12.036Z,64.00
2018-12-27T12:52:40.308Z,63.50
2018-12-27T12:55:08.515Z,63.70
2018-12-27T12:57:36.722Z,63.90
2018-12-27T13:00:07.613Z,64.30
2018-12-27T13:02:35.772Z,64.20
2018-12-27T13:05:04.384Z,64.00
2018-12-27T13:07:33.124Z,64.20
2018-12-27T13:10:01.339Z,64.20
2018-12-27T13:12:29.484Z,64.20
2018-12-27T13:14:57.636Z,64.90
2018-12-27T13:17:25.832Z,65.70
2018-12-27T13:19:54.759Z,66.30
2018-12-27T13:22:22.914Z,66.70
2018-12-27T13:24:51.140Z,66.80
2018-12-27T13:27:19.387Z,66.80
2018-12-27T13:29:47.611Z,67.00
2018-12-27T13:32:15.737Z,67.00
2018-12-27T13:34:44.067Z,67.00
2018-12-27T13:37:12.473Z,67.10
2018-12-27T13:39:40.762Z,67.40
2018-12-27T13:42:09.364Z,67.50
2018-12-27T13:44:37.691Z,67.20
2018-12-27T13:47:06.350Z,66.90
2018-12-27T13:49:34.600Z,66.60
2018-12-27T13:52:02.846Z,64.60
2018-12-27T13:54:31.138Z,63.50
2018-12-27T13:56:59.608Z,61.80
2018-12-27T13:59:27.934Z,60.40
2018-12-27T14:01:56.173Z,59.80
2018-12-27T14:04:24.392Z,58.20
2018-12-27T14:06:52.463Z,54.40
2018-12-27T14:09:21.129Z,53.80
2018-12-27T14:11:49.270Z,52.70
2018-12-27T14:14:17.532Z,52.20
2018-12-27T14:16:45.839Z,51.40
2018-12-27T14:19:14.097Z,51.10
2018-12-27T14:21:42.637Z,50.70
2018-12-27T14:24:10.806Z,50.60
2018-12-27T14:26:39.020Z,50.50
2018-12-27T14:29:07.142Z,50.30
2018-12-27T14:31:35.392Z,50.60
2018-12-27T14:34:03.957Z,50.90
2018-12-27T14:36:32.252Z,51.30
2018-12-27T14:39:00.481Z,51.80
2018-12-27T14:41:28.730Z,53.80
2018-12-27T14:43:57.002Z,56.10
2018-12-27T14:46:25.088Z,56.50
2018-12-27T14:48:53.299Z,57.20
2018-12-27T14:51:21.410Z,57.50
2018-12-27T14:53:49.659Z,58.10
2018-12-27T14:56:20.313Z,59.70
2018-12-27T14:58:48.740Z,63.40
2018-12-27T15:01:16.878Z,63.70
2018-12-27T15:03:45.123Z,64.50
2018-12-27T15:06:13.265Z,65.80
2018-12-27T15:08:41.527Z,66.40
2018-12-27T15:11:09.676Z,68.10
2018-12-27T15:13:37.958Z,69.40
2018-12-27T15:16:06.161Z,70.80
2018-12-27T15:18:34.330Z,71.10
2018-12-27T15:21:02.912Z,71.50
2018-12-27T15:23:31.144Z,72.00
2018-12-27T15:25:59.249Z,72.30
2018-12-27T15:28:27.491Z,72.80
2018-12-27T15:30:55.881Z,72.90
2018-12-27T15:33:24.071Z,73.10
2018-12-27T15:35:52.517Z,73.90
2018-12-27T15:38:20.633Z,74.60
2018-12-27T15:40:48.849Z,75.10
2018-12-27T15:43:17.016Z,75.60
2018-12-27T15:45:45.178Z,76.40
2018-12-27T15:48:13.476Z,77.20
2018-12-27T15:50:41.497Z,77.60
2018-12-27T15:53:09.652Z,78.10
2018-12-27T15:55:38.113Z,78.60
2018-12-27T15:58:06.380Z,78.90
2018-12-27T16:00:34.798Z,79.40
2018-12-27T16:03:03.258Z,79.70
2018-12-27T16:05:32.517Z,80.50
2018-12-27T16:08:00.739Z,81.80
2018-12-27T16:10:28.886Z,82.50
2018-12-27T16:12:57.070Z,83.20
2018-12-27T16:15:25.211Z,84.20
2018-12-27T16:17:53.435Z,85.70
2018-12-27T16:20:21.625Z,86.30
2018-12-27T16:22:50.056Z,87.00
2018-12-27T16:25:18.609Z,87.50
2018-12-27T16:27:46.753Z,88.10
2018-12-27T16:30:15.171Z,88.10
2018-12-27T16:32:43.390Z,88.30
2018-12-27T16:35:11.677Z,88.20
2018-12-27T16:37:39.964Z,88.00
2018-12-27T16:40:08.390Z,87.80
2018-12-27T16:42:36.542Z,87.40
2018-12-27T16:45:05.355Z,87.10
2018-12-27T16:47:33.541Z,87.20
2018-12-27T16:50:01.854Z,87.70
2018-12-27T16:52:31.011Z,88.30
2018-12-27T16:54:59.288Z,88.90
2018-12-27T16:57:27.560Z,89.10
2018-12-27T16:59:55.661Z,89.50
2018-12-27T17:02:24.587Z,89.70
2018-12-27T17:04:52.750Z,90.10
2018-12-27T17:07:21.267Z,90.30
2018-12-27T17:09:49.474Z,90.30
2018-12-27T17:12:18.476Z,90.70
2018-12-27T17:14:46.700Z,90.90
2018-12-27T17:17:14.909Z,91.00
2018-12-27T17:19:43.012Z,91.10
2018-12-27T17:22:12.045Z,91.20
2018-12-27T17:24:41.057Z,91.30
2018-12-27T17:27:09.313Z,91.30
2018-12-27T17:29:37.481Z,91.30
2018-12-27T17:32:05.724Z,91.30
2018-12-27T17:34:33.886Z,91.20
2018-12-27T17:37:02.040Z,91.10
2018-12-27T17:39:30.637Z,91.10
2018-12-27T17:41:59.233Z,91.00
2018-12-27T17:44:27.313Z,90.80
2018-12-27T17:46:55.579Z,90.80
2018-12-27T17:49:23.670Z,91.00
2018-12-27T17:51:51.860Z,91.20
2018-12-27T17:54:20.060Z,91.40
2018-12-27T17:56:49.349Z,91.60
2018-12-27T17:59:17.679Z,91.90
2018-12-27T18:01:46.619Z,92.00
2018-12-27T18:04:14.757Z,92.00
2018-12-27T18:06:43.036Z,92.00
2018-12-27T18:09:11.177Z,92.10
2018-12-27T18:11:39.403Z,92.20
2018-12-27T18:14:07.565Z,92.20
2018-12-27T18:16:35.785Z,92.20
2018-12-27T18:19:03.885Z,92.20
2018-12-27T18:21:32.109Z,92.20
2018-12-27T18:24:00.321Z,92.20
2018-12-27T18:26:28.620Z,92.10
2018-12-27T18:28:56.817Z,91.90
2018-12-27T18:31:26.277Z,91.90
2018-12-27T18:33:54.357Z,91.60
2018-12-27T18:36:22.974Z,91.40
2018-12-27T18:38:51.116Z,91.20
2018-12-27T18:41:19.430Z,90.90
2018-12-27T18:43:48.022Z,90.60
2018-12-27T18:46:16.393Z,90.30
2018-12-27T18:48:44.650Z,90.20
2018-12-27T18:51:12.773Z,90.00
2018-12-27T18:53:40.985Z,89.90
2018-12-27T18:56:09.454Z,89.80
2018-12-27T18:58:37.815Z,89.80
2018-12-27T19:01:05.921Z,89.80
2018-12-27T19:03:34.104Z,89.80
2018-12-27T19:06:02.283Z,89.90
2018-12-27T19:08:30.568Z,90.00
2018-12-27T19:11:35.176Z,90.00
2018-12-27T19:14:03.338Z,90.20
2018-12-27T19:16:31.544Z,90.30
2018-12-27T19:18:59.760Z,90.40
2018-12-27T19:21:46.504Z,90.50
2018-12-27T19:24:15.705Z,90.60
2018-12-27T19:26:44.053Z,91.00
2018-12-27T19:29:12.270Z,91.30
2018-12-27T19:31:40.381Z,91.40
2018-12-27T19:34:09.829Z,91.60
2018-12-27T19:36:38.366Z,92.00
2018-12-27T19:39:06.680Z,92.30
2018-12-27T19:41:34.948Z,92.50
2018-12-27T19:44:03.187Z,92.60
2018-12-27T19:46:32.181Z,92.70
2018-12-27T19:49:00.812Z,92.80
2018-12-27T19:51:28.964Z,92.70
2018-12-27T19:53:57.515Z,92.70
2018-12-27T19:56:26.436Z,92.60
2018-12-27T19:58:54.665Z,92.50
2018-12-27T20:01:22.897Z,92.50
2018-12-27T20:03:50.988Z,92.60
2018-12-27T20:06:19.367Z,92.60
2018-12-27T20:08:48.131Z,92.70
2018-12-27T20:11:18.751Z,92.90
2018-12-27T20:13:47.167Z,93.10
2018-12-27T20:16:15.392Z,93.30
2018-12-27T20:18:43.603Z,93.60
2018-12-27T20:21:11.947Z,93.80
2018-12-27T20:23:39.926Z,93.80
2018-12-27T20:26:08.165Z,93.60
2018-12-27T20:28:36.306Z,93.60
2018-12-27T20:31:04.495Z,93.60
2018-12-27T20:33:33.656Z,93.50
2018-12-27T20:36:01.896Z,93.50
2018-12-27T20:38:33.066Z,93.60
2018-12-27T20:41:03.633Z,93.80
2018-12-27T20:43:32.414Z,94.00
2018-12-27T20:46:02.932Z,94.10
2018-12-27T20:48:32.823Z,94.30
2018-12-27T20:51:00.962Z,94.50
2018-12-27T20:53:32.173Z,94.60
2018-12-27T20:56:01.703Z,94.80
2018-12-27T20:58:30.014Z,95.10
2018-12-27T21:00:58.285Z,95.50
2018-12-27T21:03:28.042Z,95.80
2018-12-27T21:05:58.309Z,96.10
2018-12-27T21:08:28.640Z,96.40
2018-12-27T21:10:57.399Z,96.50
2018-12-27T21:13:30.593Z,96.50
2018-12-27T21:16:00.891Z,96.30
2018-12-27T21:18:31.357Z,96.10
2018-12-27T21:21:03.642Z,96.00
2018-12-27T21:23:33.016Z,95.90
2018-12-27T21:26:03.887Z,95.90
2018-12-27T21:28:36.957Z,95.90
2018-12-27T21:31:07.755Z,95.90
2018-12-27T21:33:37.798Z,96.00
2018-12-27T21:36:08.638Z,96.00
2018-12-27T21:38:39.293Z,96.00
2018-12-27T21:41:07.761Z,95.90
2018-12-27T21:43:36.258Z,95.90
2018-12-27T21:46:04.536Z,95.80
2018-12-27T21:48:32.715Z,95.60
2018-12-27T21:51:00.852Z,95.30
2018-12-27T21:53:28.985Z,95.10
2018-12-27T21:55:57.085Z,94.80
2018-12-27T21:58:25.194Z,94.50
2018-12-27T22:00:53.647Z,94.20
2018-12-27T22:03:22.058Z,94.00
2018-12-27T22:05:50.221Z,94.00
2018-12-27T22:08:18.380Z,93.90
2018-12-27T22:10:47.421Z,94.00
2018-12-27T22:13:15.567Z,94.10
2018-12-27T22:15:43.708Z,94.30
2018-12-27T22:18:12.232Z,94.50
2018-12-27T22:20:41.309Z,94.60
2018-12-27T22:23:09.554Z,94.90
2018-12-27T22:25:37.704Z,95.10
2018-12-27T22:28:05.933Z,95.40
2018-12-27T22:30:34.572Z,95.70
2018-12-27T22:33:02.656Z,96.00
2018-12-27T22:35:30.876Z,96.20
2018-12-27T22:37:59.105Z,96.20
2018-12-27T22:40:27.341Z,96.30
2018-12-27T22:42:55.988Z,96.10
2018-12-27T22:45:24.224Z,95.90
2018-12-27T22:47:52.263Z,95.80
2018-12-27T22:50:20.518Z,95.70
2018-12-27T22:52:48.678Z,95.80
2018-12-27T22:55:17.017Z,95.90
2018-12-27T22:57:45.314Z,96.00
2018-12-27T23:00:21.064Z,96.30
2018-12-27T23:02:51.025Z,96.40
2018-12-27T23:05:22.281Z,96.70
2018-12-27T23:07:51.487Z,96.90
2018-12-27T23:10:19.728Z,97.20
2018-12-27T23:12:47.812Z,97.50
2018-12-27T23:15:16.017Z,97.70
2018-12-27T23:17:44.536Z,97.90
2018-12-27T23:20:12.823Z,97.90
2018-12-27T23:22:40.961Z,98.10
2018-12-27T23:25:09.172Z,98.10
2018-12-27T23:27:38.284Z,98.10
2018-12-27T23:30:07.381Z,98.10
2018-12-27T23:32:35.509Z,98.20
2018-12-27T23:35:03.980Z,98.30
2018-12-27T23:37:32.148Z,98.30
2018-12-27T23:40:00.551Z,98.40
2018-12-27T23:42:28.819Z,98.50
2018-12-27T23:44:57.040Z,98.50
2018-12-27T23:47:25.157Z,98.60
2018-12-27T23:49:53.394Z,98.50
2018-12-27T23:52:21.487Z,98.50
2018-12-27T23:54:49.689Z,98.40
2018-12-27T23:57:17.837Z,98.30
2018-12-27T23:59:46.067Z,98.30
